sensor_id;sensor_type;location;lat;lon;timestamp;pressure;altitude;pressure_sealevel;temperature;humidity
19759;BME280;10038;42.662;23.278;2023-05-12T00:02:18;161117.03;;;9.22;96.14
19759;BME280;10038;42.662;23.278;2023-05-12T00:04:45;161130.34;;;9.27;95.42
19759;BME280;10038;42.662;23.278;2023-05-12T00:07:12;161123.69;;;9.25;95.65
19759;BME280;10038;42.662;23.278;2023-05-12T00:09:39;161109.03;;;9.19;95.52
19759;BME280;10038;42.662;23.278;2023-05-12T00:12:07;161130.34;;;9.27;94.76
19759;BME280;10038;42.662;23.278;2023-05-12T00:14:34;161014.50;;;8.83;94.49
19759;BME280;10038;42.662;23.278;2023-05-12T00:17:03;161130.34;;;9.27;95.07
19759;BME280;10038;42.662;23.278;2023-05-12T00:19:31;161119.66;;;9.23;94.53
19759;BME280;10038;42.662;23.278;2023-05-12T00:21:58;161117.03;;;9.22;94.58
19759;BME280;10038;42.662;23.278;2023-05-12T00:24:25;161015.84;;;8.84;94.80
19759;BME280;10038;42.662;23.278;2023-05-12T00:26:53;161097.00;;;9.15;94.85
19759;BME280;10038;42.662;23.278;2023-05-12T00:29:20;161041.09;;;8.94;95.94
19759;BME280;10038;42.662;23.278;2023-05-12T00:31:46;161059.78;;;9.01;95.75
19759;BME280;10038;42.662;23.278;2023-05-12T00:34:15;161053.13;;;8.98;96.67
19759;BME280;10038;42.662;23.278;2023-05-12T00:36:42;161037.13;;;8.92;97.84
19759;BME280;10038;42.662;23.278;2023-05-12T00:39:09;161002.47;;;8.79;98.49
19759;BME280;10038;42.662;23.278;2023-05-12T00:41:36;160990.53;;;8.74;99.55
19759;BME280;10038;42.662;23.278;2023-05-12T00:44:03;160975.88;;;8.69;99.79
19759;BME280;10038;42.662;23.278;2023-05-12T00:46:30;160962.56;;;8.64;100.00
19759;BME280;10038;42.662;23.278;2023-05-12T00:48:57;160954.59;;;8.61;100.00
19759;BME280;10038;42.662;23.278;2023-05-12T00:51:26;160947.94;;;8.58;100.00
19759;BME280;10038;42.662;23.278;2023-05-12T00:53:53;160922.66;;;8.49;100.00
19759;BME280;10038;42.662;23.278;2023-05-12T00:56:22;160917.31;;;8.47;100.00
19759;BME280;10038;42.662;23.278;2023-05-12T00:58:49;160914.69;;;8.46;100.00
19759;BME280;10038;42.662;23.278;2023-05-12T01:01:16;160884.06;;;8.34;100.00
19759;BME280;10038;42.662;23.278;2023-05-12T01:03:43;160872.03;;;8.29;100.00
19759;BME280;10038;42.662;23.278;2023-05-12T01:06:12;160866.75;;;8.27;100.00
19759;BME280;10038;42.662;23.278;2023-05-12T01:08:44;160861.38;;;8.25;100.00
19759;BME280;10038;42.662;23.278;2023-05-12T01:11:11;160821.44;;;8.10;100.00
19759;BME280;10038;42.662;23.278;2023-05-12T01:13:38;160833.44;;;8.15;100.00
19759;BME280;10038;42.662;23.278;2023-05-12T01:16:08;160805.50;;;8.04;100.00
19759;BME280;10038;42.662;23.278;2023-05-12T01:18:39;160818.81;;;8.09;100.00
19759;BME280;10038;42.662;23.278;2023-05-12T01:21:08;160825.44;;;8.12;100.00
19759;BME280;10038;42.662;23.278;2023-05-12T01:23:39;160800.16;;;8.02;100.00
19759;BME280;10038;42.662;23.278;2023-05-12T01:26:10;160810.81;;;8.06;100.00
19759;BME280;10038;42.662;23.278;2023-05-12T01:28:38;160797.50;;;8.01;100.00
19759;BME280;10038;42.662;23.278;2023-05-12T01:31:06;160786.84;;;7.97;100.00
19759;BME280;10038;42.662;23.278;2023-05-12T01:33:34;160784.22;;;7.96;100.00
19759;BME280;10038;42.662;23.278;2023-05-12T01:36:02;160770.88;;;7.91;100.00
19759;BME280;10038;42.662;23.278;2023-05-12T01:38:30;160776.25;;;7.93;100.00
19759;BME280;10038;42.662;23.278;2023-05-12T01:40:57;160742.94;;;7.81;100.00
19759;BME280;10038;42.662;23.278;2023-05-12T01:43:25;160738.97;;;7.79;100.00
19759;BME280;10038;42.662;23.278;2023-05-12T01:45:52;160728.31;;;7.75;100.00
19759;BME280;10038;42.662;23.278;2023-05-12T01:48:19;160738.97;;;7.79;100.00
19759;BME280;10038;42.662;23.278;2023-05-12T01:50:46;160744.28;;;7.81;100.00
19759;BME280;10038;42.662;23.278;2023-05-12T01:53:12;160748.31;;;7.83;100.00
19759;BME280;10038;42.662;23.278;2023-05-12T01:55:39;160752.28;;;7.84;100.00
19759;BME280;10038;42.662;23.278;2023-05-12T01:58:06;160748.31;;;7.83;100.00
19759;BME280;10038;42.662;23.278;2023-05-12T02:00:35;160741.59;;;7.80;100.00
19759;BME280;10038;42.662;23.278;2023-05-12T02:03:02;160732.34;;;7.77;100.00
19759;BME280;10038;42.662;23.278;2023-05-12T02:05:28;160746.97;;;7.82;100.00
19759;BME280;10038;42.662;23.278;2023-05-12T02:07:55;160734.97;;;7.78;100.00
19759;BME280;10038;42.662;23.278;2023-05-12T02:10:22;160652.53;;;7.46;100.00
19759;BME280;10038;42.662;23.278;2023-05-12T02:12:49;160701.72;;;7.65;100.00
19759;BME280;10038;42.662;23.278;2023-05-12T02:15:16;160712.41;;;7.69;100.00
19759;BME280;10038;42.662;23.278;2023-05-12T02:17:44;160716.34;;;7.70;100.00
19759;BME280;10038;42.662;23.278;2023-05-12T02:20:11;160711.06;;;7.68;100.00
19759;BME280;10038;42.662;23.278;2023-05-12T02:22:39;160692.41;;;7.61;100.00
19759;BME280;10038;42.662;23.278;2023-05-12T02:25:06;160699.03;;;7.64;100.00
19759;BME280;10038;42.662;23.278;2023-05-12T02:27:33;160696.41;;;7.63;100.00
19759;BME280;10038;42.662;23.278;2023-05-12T02:30:00;160688.44;;;7.60;100.00
19759;BME280;10038;42.662;23.278;2023-05-12T02:32:27;160691.06;;;7.61;100.00
19759;BME280;10038;42.662;23.278;2023-05-12T02:34:55;160632.59;;;7.39;100.00
19759;BME280;10038;42.662;23.278;2023-05-12T02:37:22;160715.03;;;7.70;100.00
19759;BME280;10038;42.662;23.278;2023-05-12T02:39:49;160693.75;;;7.62;100.00
19759;BME280;10038;42.662;23.278;2023-05-12T02:42:16;160699.03;;;7.64;100.00
19759;BME280;10038;42.662;23.278;2023-05-12T02:44:43;160672.47;;;7.54;100.00
19759;BME280;10038;42.662;23.278;2023-05-12T02:47:10;160704.41;;;7.66;100.00
19759;BME280;10038;42.662;23.278;2023-05-12T02:49:37;160708.38;;;7.67;100.00
19759;BME280;10038;42.662;23.278;2023-05-12T02:52:05;160707.03;;;7.67;100.00
19759;BME280;10038;42.662;23.278;2023-05-12T02:54:32;160713.69;;;7.69;100.00
19759;BME280;10038;42.662;23.278;2023-05-12T02:57:03;160685.75;;;7.59;100.00
19759;BME280;10038;42.662;23.278;2023-05-12T02:59:30;160692.41;;;7.61;100.00
19759;BME280;10038;42.662;23.278;2023-05-12T03:01:57;160673.81;;;7.54;100.00
19759;BME280;10038;42.662;23.278;2023-05-12T03:04:24;160675.16;;;7.55;100.00
19759;BME280;10038;42.662;23.278;2023-05-12T03:06:51;160667.16;;;7.52;100.00
19759;BME280;10038;42.662;23.278;2023-05-12T03:09:19;160665.81;;;7.51;100.00
19759;BME280;10038;42.662;23.278;2023-05-12T03:11:46;160672.47;;;7.54;100.00
19759;BME280;10038;42.662;23.278;2023-05-12T03:14:13;160683.13;;;7.58;100.00
19759;BME280;10038;42.662;23.278;2023-05-12T03:16:39;160681.78;;;7.57;100.00
19759;BME280;10038;42.662;23.278;2023-05-12T03:19:06;160725.69;;;7.74;100.00
19759;BME280;10038;42.662;23.278;2023-05-12T03:21:33;160693.75;;;7.62;100.00
19759;BME280;10038;42.662;23.278;2023-05-12T03:24:00;160687.09;;;7.59;100.00
19759;BME280;10038;42.662;23.278;2023-05-12T03:26:29;160684.41;;;7.58;100.00
19759;BME280;10038;42.662;23.278;2023-05-12T03:28:55;160691.06;;;7.61;100.00
19759;BME280;10038;42.662;23.278;2023-05-12T03:31:22;160688.44;;;7.60;100.00
19759;BME280;10038;42.662;23.278;2023-05-12T03:33:49;160691.06;;;7.61;100.00
19759;BME280;10038;42.662;23.278;2023-05-12T03:36:16;160683.13;;;7.58;100.00
19759;BME280;10038;42.662;23.278;2023-05-12T03:38:43;160703.06;;;7.65;100.00
19759;BME280;10038;42.662;23.278;2023-05-12T03:41:10;160568.72;;;7.14;100.00
19759;BME280;10038;42.662;23.278;2023-05-12T03:43:38;160685.75;;;7.59;100.00
19759;BME280;10038;42.662;23.278;2023-05-12T03:46:05;160685.75;;;7.59;100.00
19759;BME280;10038;42.662;23.278;2023-05-12T03:48:32;160672.47;;;7.54;100.00
19759;BME280;10038;42.662;23.278;2023-05-12T03:50:59;160683.13;;;7.58;100.00
19759;BME280;10038;42.662;23.278;2023-05-12T03:53:26;160688.44;;;7.60;100.00
19759;BME280;10038;42.662;23.278;2023-05-12T03:55:53;160731.00;;;7.76;100.00
19759;BME280;10038;42.662;23.278;2023-05-12T03:58:21;160749.59;;;7.83;100.00
19759;BME280;10038;42.662;23.278;2023-05-12T04:00:49;160772.22;;;7.92;100.00
19759;BME280;10038;42.662;23.278;2023-05-12T04:03:16;160786.84;;;7.97;100.00
19759;BME280;10038;42.662;23.278;2023-05-12T04:05:43;160798.84;;;8.02;100.00
19759;BME280;10038;42.662;23.278;2023-05-12T04:08:10;160837.41;;;8.16;100.00
19759;BME280;10038;42.662;23.278;2023-05-12T04:10:38;160733.69;;;7.77;100.00
19759;BME280;10038;42.662;23.278;2023-05-12T04:13:05;160845.41;;;8.19;100.00
19759;BME280;10038;42.662;23.278;2023-05-12T04:15:32;160837.41;;;8.16;100.00
19759;BME280;10038;42.662;23.278;2023-05-12T04:18:01;160872.03;;;8.29;100.00
19759;BME280;10038;42.662;23.278;2023-05-12T04:20:28;160813.50;;;8.07;100.00
19759;BME280;10038;42.662;23.278;2023-05-12T04:22:55;160860.03;;;8.25;100.00
19759;BME280;10038;42.662;23.278;2023-05-12T04:25:22;160846.75;;;8.20;100.00
19759;BME280;10038;42.662;23.278;2023-05-12T04:27:49;160864.06;;;8.26;100.00
19759;BME280;10038;42.662;23.278;2023-05-12T04:30:16;160862.72;;;8.26;100.00
19759;BME280;10038;42.662;23.278;2023-05-12T04:32:42;160901.31;;;8.41;100.00
19759;BME280;10038;42.662;23.278;2023-05-12T04:35:11;160861.38;;;8.25;100.00
19759;BME280;10038;42.662;23.278;2023-05-12T04:37:38;160882.72;;;8.34;100.00
19759;BME280;10038;42.662;23.278;2023-05-12T04:40:06;160853.38;;;8.22;100.00
19759;BME280;10038;42.662;23.278;2023-05-12T04:42:33;160784.22;;;7.96;100.00
19759;BME280;10038;42.662;23.278;2023-05-12T04:45:00;160898.69;;;8.40;100.00
19759;BME280;10038;42.662;23.278;2023-05-12T04:47:27;160908.03;;;8.43;100.00
19759;BME280;10038;42.662;23.278;2023-05-12T04:49:54;160888.03;;;8.36;100.00
19759;BME280;10038;42.662;23.278;2023-05-12T04:52:23;160876.06;;;8.31;100.00
19759;BME280;10038;42.662;23.278;2023-05-12T04:54:50;160858.69;;;8.24;100.00
19759;BME280;10038;42.662;23.278;2023-05-12T04:57:17;160830.75;;;8.14;100.00
19759;BME280;10038;42.662;23.278;2023-05-12T04:59:45;160861.38;;;8.25;100.00
19759;BME280;10038;42.662;23.278;2023-05-12T05:02:12;160869.41;;;8.28;100.00
19759;BME280;10038;42.662;23.278;2023-05-12T05:04:39;160833.44;;;8.15;100.00
19759;BME280;10038;42.662;23.278;2023-05-12T05:07:06;160941.28;;;8.56;100.00
19759;BME280;10038;42.662;23.278;2023-05-12T05:09:34;160955.91;;;8.61;100.00
19759;BME280;10038;42.662;23.278;2023-05-12T05:12:01;160974.53;;;8.68;100.00
19759;BME280;10038;42.662;23.278;2023-05-12T05:14:28;160970.56;;;8.67;100.00
19759;BME280;10038;42.662;23.278;2023-05-12T05:16:55;160981.19;;;8.71;100.00
19759;BME280;10038;42.662;23.278;2023-05-12T05:19:22;161006.50;;;8.80;100.00
19759;BME280;10038;42.662;23.278;2023-05-12T05:21:49;160982.53;;;8.71;100.00
19759;BME280;10038;42.662;23.278;2023-05-12T05:24:16;161007.84;;;8.81;100.00
19759;BME280;10038;42.662;23.278;2023-05-12T05:26:44;160994.53;;;8.76;100.00
19759;BME280;10038;42.662;23.278;2023-05-12T05:29:11;160925.28;;;8.50;100.00
19759;BME280;10038;42.662;23.278;2023-05-12T05:31:38;160986.53;;;8.73;100.00
19759;BME280;10038;42.662;23.278;2023-05-12T05:34:05;161002.47;;;8.79;100.00
19759;BME280;10038;42.662;23.278;2023-05-12T05:36:32;160998.50;;;8.77;100.00
19759;BME280;10038;42.662;23.278;2023-05-12T05:39:01;160979.91;;;8.70;100.00
19759;BME280;10038;42.662;23.278;2023-05-12T05:41:27;160987.88;;;8.73;100.00
19759;BME280;10038;42.662;23.278;2023-05-12T05:43:56;160974.53;;;8.68;100.00
19759;BME280;10038;42.662;23.278;2023-05-12T05:46:23;160991.88;;;8.75;100.00
19759;BME280;10038;42.662;23.278;2023-05-12T05:48:50;160963.91;;;8.64;100.00
19759;BME280;10038;42.662;23.278;2023-05-12T05:51:16;160985.22;;;8.72;100.00
19759;BME280;10038;42.662;23.278;2023-05-12T05:53:43;161031.78;;;8.90;100.00
19759;BME280;10038;42.662;23.278;2023-05-12T05:56:10;161013.16;;;8.83;100.00
19759;BME280;10038;42.662;23.278;2023-05-12T05:58:37;161061.06;;;9.01;100.00
19759;BME280;10038;42.662;23.278;2023-05-12T06:01:05;161077.06;;;9.07;100.00
19759;BME280;10038;42.662;23.278;2023-05-12T06:03:32;161074.44;;;9.06;100.00
19759;BME280;10038;42.662;23.278;2023-05-12T06:05:59;161043.78;;;8.95;100.00
19759;BME280;10038;42.662;23.278;2023-05-12T06:08:26;161075.72;;;9.07;100.00
19759;BME280;10038;42.662;23.278;2023-05-12T06:10:53;161058.44;;;9.00;100.00
19759;BME280;10038;42.662;23.278;2023-05-12T06:13:20;161077.06;;;9.07;100.00
19759;BME280;10038;42.662;23.278;2023-05-12T06:15:47;161094.38;;;9.14;100.00
19759;BME280;10038;42.662;23.278;2023-05-12T06:18:16;161123.69;;;9.25;100.00
19759;BME280;10038;42.662;23.278;2023-05-12T06:20:43;161123.69;;;9.25;100.00
19759;BME280;10038;42.662;23.278;2023-05-12T06:23:09;161143.66;;;9.32;100.00
19759;BME280;10038;42.662;23.278;2023-05-12T06:25:36;161121.00;;;9.24;100.00
19759;BME280;10038;42.662;23.278;2023-05-12T06:28:03;161109.03;;;9.19;100.00
19759;BME280;10038;42.662;23.278;2023-05-12T06:30:31;161051.78;;;8.98;100.00
19759;BME280;10038;42.662;23.278;2023-05-12T06:32:59;161077.06;;;9.07;100.00
19759;BME280;10038;42.662;23.278;2023-05-12T06:35:27;161175.63;;;9.44;100.00
19759;BME280;10038;42.662;23.278;2023-05-12T06:37:54;161191.56;;;9.50;100.00
19759;BME280;10038;42.662;23.278;2023-05-12T06:40:21;161179.59;;;9.46;100.00
19759;BME280;10038;42.662;23.278;2023-05-12T06:42:48;161176.94;;;9.45;99.28
19759;BME280;10038;42.662;23.278;2023-05-12T06:45:16;161180.94;;;9.46;99.34
19759;BME280;10038;42.662;23.278;2023-05-12T06:47:43;161147.63;;;9.34;99.21
19759;BME280;10038;42.662;23.278;2023-05-12T06:50:10;161175.63;;;9.44;99.71
19759;BME280;10038;42.662;23.278;2023-05-12T06:52:39;161172.94;;;9.43;99.92
19759;BME280;10038;42.662;23.278;2023-05-12T06:55:06;161154.31;;;9.36;98.88
19759;BME280;10038;42.662;23.278;2023-05-12T06:57:33;161162.28;;;9.39;98.83
19759;BME280;10038;42.662;23.278;2023-05-12T07:00:01;161199.56;;;9.54;98.58
19759;BME280;10038;42.662;23.278;2023-05-12T07:02:28;161168.97;;;9.42;98.19
19759;BME280;10038;42.662;23.278;2023-05-12T07:04:55;161170.28;;;9.42;98.36
19759;BME280;10038;42.662;23.278;2023-05-12T07:07:22;161215.56;;;9.60;98.58
19759;BME280;10038;42.662;23.278;2023-05-12T07:09:50;161215.56;;;9.60;98.22
19759;BME280;10038;42.662;23.278;2023-05-12T07:12:17;161254.22;;;9.74;98.03
19759;BME280;10038;42.662;23.278;2023-05-12T07:14:44;161255.56;;;9.75;97.33
19759;BME280;10038;42.662;23.278;2023-05-12T07:17:11;161247.56;;;9.72;98.01
19759;BME280;10038;42.662;23.278;2023-05-12T07:19:38;161236.88;;;9.68;97.31
19759;BME280;10038;42.662;23.278;2023-05-12T07:22:05;161231.56;;;9.66;98.50
19759;BME280;10038;42.662;23.278;2023-05-12T07:24:32;161200.91;;;9.54;97.98
19759;BME280;10038;42.662;23.278;2023-05-12T07:27:03;161198.28;;;9.53;97.71
19759;BME280;10038;42.662;23.278;2023-05-12T07:29:30;161183.63;;;9.47;97.86
19759;BME280;10038;42.662;23.278;2023-05-12T07:31:57;161220.88;;;9.62;98.68
19759;BME280;10038;42.662;23.278;2023-05-12T07:34:24;161215.56;;;9.60;97.13
19759;BME280;10038;42.662;23.278;2023-05-12T07:36:52;161236.88;;;9.68;97.47
19759;BME280;10038;42.662;23.278;2023-05-12T07:39:19;161279.50;;;9.84;96.61
19759;BME280;10038;42.662;23.278;2023-05-12T07:41:48;161272.84;;;9.81;96.68
19759;BME280;10038;42.662;23.278;2023-05-12T07:44:17;161295.50;;;9.90;96.97
19759;BME280;10038;42.662;23.278;2023-05-12T07:46:44;161347.47;;;10.09;96.23
19759;BME280;10038;42.662;23.278;2023-05-12T07:49:11;161351.44;;;10.11;95.17
19759;BME280;10038;42.662;23.278;2023-05-12T07:51:38;161338.13;;;10.06;95.15
19759;BME280;10038;42.662;23.278;2023-05-12T07:54:05;161308.81;;;9.95;94.93
19759;BME280;10038;42.662;23.278;2023-05-12T07:56:32;161330.13;;;10.03;95.10
19759;BME280;10038;42.662;23.278;2023-05-12T07:59:00;161332.81;;;10.04;94.41
19759;BME280;10038;42.662;23.278;2023-05-12T08:01:28;161450.16;;;10.48;93.90
19759;BME280;10038;42.662;23.278;2023-05-12T08:03:55;161591.47;;;11.02;92.30
19759;BME280;10038;42.662;23.278;2023-05-12T08:06:22;161620.78;;;11.13;89.50
19759;BME280;10038;42.662;23.278;2023-05-12T08:08:49;161655.50;;;11.26;89.79
19759;BME280;10038;42.662;23.278;2023-05-12T08:11:16;161750.22;;;11.62;88.46
19759;BME280;10038;42.662;23.278;2023-05-12T08:13:43;161712.88;;;11.48;86.87
19759;BME280;10038;42.662;23.278;2023-05-12T08:16:11;161703.50;;;11.44;88.60
19759;BME280;10038;42.662;23.278;2023-05-12T08:18:39;161754.22;;;11.63;86.13
19759;BME280;10038;42.662;23.278;2023-05-12T08:21:06;161799.63;;;11.80;86.51
19759;BME280;10038;42.662;23.278;2023-05-12T08:23:34;161782.28;;;11.74;85.26
19759;BME280;10038;42.662;23.278;2023-05-12T08:26:02;161704.84;;;11.45;85.50
19759;BME280;10038;42.662;23.278;2023-05-12T08:28:29;161692.81;;;11.40;86.04
19759;BME280;10038;42.662;23.278;2023-05-12T08:30:56;161763.56;;;11.67;86.21
19759;BME280;10038;42.662;23.278;2023-05-12T08:33:24;161820.97;;;11.89;85.20
19759;BME280;10038;42.662;23.278;2023-05-12T08:35:52;161829.00;;;11.92;84.80
19759;BME280;10038;42.662;23.278;2023-05-12T08:38:19;161913.03;;;12.23;84.05
19759;BME280;10038;42.662;23.278;2023-05-12T08:41:05;161890.34;;;12.15;82.95
19759;BME280;10038;42.662;23.278;2023-05-12T08:43:39;161915.72;;;12.24;83.41
19759;BME280;10038;42.662;23.278;2023-05-12T08:46:08;161778.28;;;11.72;83.39
19759;BME280;10038;42.662;23.278;2023-05-12T08:48:37;161918.38;;;12.25;83.56
19759;BME280;10038;42.662;23.278;2023-05-12T08:51:07;161838.28;;;11.95;83.08
19759;BME280;10038;42.662;23.278;2023-05-12T08:53:39;161893.03;;;12.16;83.11
19759;BME280;10038;42.662;23.278;2023-05-12T08:56:07;161938.44;;;12.33;82.73
19759;BME280;10038;42.662;23.278;2023-05-12T08:58:36;161890.34;;;12.15;83.03
19759;BME280;10038;42.662;23.278;2023-05-12T09:01:04;161977.09;;;12.48;83.31
19759;BME280;10038;42.662;23.278;2023-05-12T09:03:33;161986.47;;;12.51;81.69
19759;BME280;10038;42.662;23.278;2023-05-12T09:06:01;161925.03;;;12.28;82.05
19759;BME280;10038;42.662;23.278;2023-05-12T09:08:30;161935.75;;;12.32;82.10
19759;BME280;10038;42.662;23.278;2023-05-12T09:10:58;161911.69;;;12.23;82.73
19759;BME280;10038;42.662;23.278;2023-05-12T09:13:28;161994.47;;;12.54;82.34
19759;BME280;10038;42.662;23.278;2023-05-12T09:16:01;161906.38;;;12.21;80.95
19759;BME280;10038;42.662;23.278;2023-05-12T09:18:46;162031.88;;;12.68;81.13
19759;BME280;10038;42.662;23.278;2023-05-12T09:21:15;161982.47;;;12.50;81.15
19759;BME280;10038;42.662;23.278;2023-05-12T09:23:53;161955.75;;;12.39;81.79
19759;BME280;10038;42.662;23.278;2023-05-12T09:26:20;161895.69;;;12.17;81.57
19759;BME280;10038;42.662;23.278;2023-05-12T09:28:48;161863.69;;;12.05;82.36
19759;BME280;10038;42.662;23.278;2023-05-12T09:31:16;161994.47;;;12.54;82.62
19759;BME280;10038;42.662;23.278;2023-05-12T09:33:44;162015.84;;;12.62;80.64
19759;BME280;10038;42.662;23.278;2023-05-12T09:36:11;161906.38;;;12.21;80.09
19759;BME280;10038;42.662;23.278;2023-05-12T09:38:42;162037.19;;;12.70;80.28
19759;BME280;10038;42.662;23.278;2023-05-12T09:41:10;162069.25;;;12.82;79.78
19759;BME280;10038;42.662;23.278;2023-05-12T09:43:43;162099.94;;;12.94;79.73
19759;BME280;10038;42.662;23.278;2023-05-12T09:46:11;162085.25;;;12.88;80.48
19759;BME280;10038;42.662;23.278;2023-05-12T09:48:39;162185.50;;;13.26;79.08
19759;BME280;10038;42.662;23.278;2023-05-12T09:51:08;162237.56;;;13.46;79.08
19759;BME280;10038;42.662;23.278;2023-05-12T09:53:40;162328.44;;;13.80;79.03
19759;BME280;10038;42.662;23.278;2023-05-12T09:56:14;162158.75;;;13.16;77.28
19759;BME280;10038;42.662;23.278;2023-05-12T09:58:43;162248.28;;;13.50;77.33
19759;BME280;10038;42.662;23.278;2023-05-12T10:01:13;162245.59;;;13.49;77.20
19759;BME280;10038;42.662;23.278;2023-05-12T10:03:42;162197.50;;;13.31;76.78
19759;BME280;10038;42.662;23.278;2023-05-12T10:06:13;162226.91;;;13.42;77.12
19759;BME280;10038;42.662;23.278;2023-05-12T10:08:43;162308.41;;;13.73;76.49
19759;BME280;10038;42.662;23.278;2023-05-12T10:11:14;162332.44;;;13.82;76.39
19759;BME280;10038;42.662;23.278;2023-05-12T10:13:44;162300.38;;;13.70;76.71
19759;BME280;10038;42.662;23.278;2023-05-12T10:16:13;162315.09;;;13.75;75.99
19759;BME280;10038;42.662;23.278;2023-05-12T10:18:41;162262.97;;;13.55;76.23
19759;BME280;10038;42.662;23.278;2023-05-12T10:21:09;162293.72;;;13.67;77.11
19759;BME280;10038;42.662;23.278;2023-05-12T10:23:38;162349.81;;;13.88;75.45
19759;BME280;10038;42.662;23.278;2023-05-12T10:26:08;162409.97;;;14.11;73.96
19759;BME280;10038;42.662;23.278;2023-05-12T10:28:37;162478.16;;;14.37;73.89
19759;BME280;10038;42.662;23.278;2023-05-12T10:31:04;162499.59;;;14.45;72.61
19759;BME280;10038;42.662;23.278;2023-05-12T10:33:32;162593.19;;;14.80;72.55
19759;BME280;10038;42.662;23.278;2023-05-12T10:35:59;162621.25;;;14.91;71.97
19759;BME280;10038;42.662;23.278;2023-05-12T10:38:34;162546.38;;;14.62;69.94
19759;BME280;10038;42.662;23.278;2023-05-12T10:41:04;162678.75;;;15.12;69.50
19759;BME280;10038;42.662;23.278;2023-05-12T10:43:39;162737.63;;;15.34;69.08
19759;BME280;10038;42.662;23.278;2023-05-12T10:46:08;162742.97;;;15.36;68.48
19759;BME280;10038;42.662;23.278;2023-05-12T10:48:36;162697.47;;;15.19;68.94
19759;BME280;10038;42.662;23.278;2023-05-12T10:51:19;162684.09;;;15.14;68.89
19759;BME280;10038;42.662;23.278;2023-05-12T10:53:50;162630.63;;;14.94;67.46
19759;BME280;10038;42.662;23.278;2023-05-12T10:56:21;162635.97;;;14.96;69.81
19759;BME280;10038;42.662;23.278;2023-05-12T10:59:09;162566.41;;;14.70;70.97
19759;BME280;10038;42.662;23.278;2023-05-12T11:01:37;162573.09;;;14.72;71.84
19759;BME280;10038;42.662;23.278;2023-05-12T11:04:12;162427.31;;;14.17;71.90
19759;BME280;10038;42.662;23.278;2023-05-12T11:06:40;162578.47;;;14.74;72.04
19759;BME280;10038;42.662;23.278;2023-05-12T11:09:07;162607.91;;;14.86;71.01
19759;BME280;10038;42.662;23.278;2023-05-12T11:11:35;162539.69;;;14.60;69.04
19759;BME280;10038;42.662;23.278;2023-05-12T11:14:02;162459.41;;;14.30;70.77
19759;BME280;10038;42.662;23.278;2023-05-12T11:16:32;162415.31;;;14.13;72.02
19759;BME280;10038;42.662;23.278;2023-05-12T11:19:00;162373.88;;;13.97;73.81
19759;BME280;10038;42.662;23.278;2023-05-12T11:21:28;162507.56;;;14.48;71.66
19759;BME280;10038;42.662;23.278;2023-05-12T11:23:57;162518.28;;;14.52;69.52
19759;BME280;10038;42.662;23.278;2023-05-12T11:26:24;162486.19;;;14.40;69.16
19759;BME280;10038;42.662;23.278;2023-05-12T11:28:51;162475.53;;;14.36;70.82
19759;BME280;10038;42.662;23.278;2023-05-12T11:31:19;162456.72;;;14.29;71.22
19759;BME280;10038;42.662;23.278;2023-05-12T11:33:48;162405.94;;;14.09;71.22
19759;BME280;10038;42.662;23.278;2023-05-12T11:36:16;162467.50;;;14.33;71.63
19759;BME280;10038;42.662;23.278;2023-05-12T11:38:48;162339.16;;;13.84;72.05
19759;BME280;10038;42.662;23.278;2023-05-12T11:41:21;162504.94;;;14.47;70.80
19759;BME280;10038;42.662;23.278;2023-05-12T11:43:48;162518.28;;;14.52;71.40
19759;BME280;10038;42.662;23.278;2023-05-12T11:46:23;162520.97;;;14.53;70.84
19759;BME280;10038;42.662;23.278;2023-05-12T11:48:55;162591.84;;;14.80;70.52
19759;BME280;10038;42.662;23.278;2023-05-12T11:51:22;162618.56;;;14.90;69.61
19759;BME280;10038;42.662;23.278;2023-05-12T11:53:51;162607.91;;;14.86;70.30
19759;BME280;10038;42.662;23.278;2023-05-12T11:56:19;162591.84;;;14.80;69.83
19759;BME280;10038;42.662;23.278;2023-05-12T11:58:52;162634.63;;;14.96;69.37
19759;BME280;10038;42.662;23.278;2023-05-12T12:01:20;162685.44;;;15.15;68.71
19759;BME280;10038;42.662;23.278;2023-05-12T12:03:48;162610.53;;;14.87;67.88
19759;BME280;10038;42.662;23.278;2023-05-12T12:06:18;162601.22;;;14.83;67.18
19759;BME280;10038;42.662;23.278;2023-05-12T12:08:51;162730.94;;;15.32;66.69
19759;BME280;10038;42.662;23.278;2023-05-12T12:11:19;162783.16;;;15.52;66.70
19759;BME280;10038;42.662;23.278;2023-05-12T12:13:47;162702.84;;;15.21;68.08
19759;BME280;10038;42.662;23.278;2023-05-12T12:16:17;162732.28;;;15.32;67.98
19759;BME280;10038;42.662;23.278;2023-05-12T12:18:44;162718.88;;;15.27;67.32
19759;BME280;10038;42.662;23.278;2023-05-12T12:21:11;162756.34;;;15.42;66.46
19759;BME280;10038;42.662;23.278;2023-05-12T12:23:39;162741.59;;;15.36;66.35
19759;BME280;10038;42.662;23.278;2023-05-12T12:26:06;162724.25;;;15.29;65.69
19759;BME280;10038;42.662;23.278;2023-05-12T12:28:34;162724.25;;;15.29;65.58
19759;BME280;10038;42.662;23.278;2023-05-12T12:31:01;162686.78;;;15.15;66.71
19759;BME280;10038;42.662;23.278;2023-05-12T12:33:28;162638.63;;;14.97;67.08
19759;BME280;10038;42.662;23.278;2023-05-12T12:35:55;162670.72;;;15.09;67.40
19759;BME280;10038;42.662;23.278;2023-05-12T12:38:22;162559.72;;;14.67;68.65
19759;BME280;10038;42.662;23.278;2023-05-12T12:40:50;162571.78;;;14.72;68.82
19759;BME280;10038;42.662;23.278;2023-05-12T12:43:17;162641.31;;;14.98;68.96
19759;BME280;10038;42.662;23.278;2023-05-12T12:45:44;162609.19;;;14.86;68.89